sensor_id;sensor_type;location;lat;lon;timestamp;pressure;altitude;pressure_sealevel;temperature;humidity
33953;BME280;20231;42.710;23.280;2023-02-04T00:01:45;94746.09;;;4.79;65.82
33953;BME280;20231;42.710;23.280;2023-02-04T00:04:14;94732.03;;;4.85;64.51
33953;BME280;20231;42.710;23.280;2023-02-04T00:06:40;94745.66;;;4.60;66.10
33953;BME280;20231;42.710;23.280;2023-02-04T00:09:05;94734.28;;;4.45;67.41
33953;BME280;20231;42.710;23.280;2023-02-04T00:11:31;94720.66;;;4.69;66.57
33953;BME280;20231;42.710;23.280;2023-02-04T00:13:57;94724.41;;;4.78;65.75
33953;BME280;20231;42.710;23.280;2023-02-04T00:16:22;94719.38;;;4.19;68.06
33953;BME280;20231;42.710;23.280;2023-02-04T00:18:47;94721.31;;;3.86;70.25
33953;BME280;20231;42.710;23.280;2023-02-04T00:21:13;94732.44;;;3.22;72.72
33953;BME280;20231;42.710;23.280;2023-02-04T00:23:38;94720.66;;;3.36;73.32
33953;BME280;20231;42.710;23.280;2023-02-04T00:26:04;94707.31;;;3.16;73.59
33953;BME280;20231;42.710;23.280;2023-02-04T00:28:29;94696.22;;;3.04;74.54
33953;BME280;20231;42.710;23.280;2023-02-04T00:30:54;94687.69;;;2.92;74.86
33953;BME280;20231;42.710;23.280;2023-02-04T00:33:20;94703.94;;;2.99;74.64
33953;BME280;20231;42.710;23.280;2023-02-04T00:35:45;94707.88;;;2.85;72.26
33953;BME280;20231;42.710;23.280;2023-02-04T00:38:10;94695.16;;;3.22;70.87
33953;BME280;20231;42.710;23.280;2023-02-04T00:40:36;94706.03;;;3.73;69.91
33953;BME280;20231;42.710;23.280;2023-02-04T00:43:01;94702.84;;;4.14;68.53
33953;BME280;20231;42.710;23.280;2023-02-04T00:45:27;94704.66;;;4.34;67.80
33953;BME280;20231;42.710;23.280;2023-02-04T00:47:52;94699.69;;;4.59;66.35
33953;BME280;20231;42.710;23.280;2023-02-04T00:50:17;94710.81;;;4.76;65.53
33953;BME280;20231;42.710;23.280;2023-02-04T00:52:43;94707.00;;;4.62;66.42
33953;BME280;20231;42.710;23.280;2023-02-04T00:55:08;94692.38;;;4.35;66.75
33953;BME280;20231;42.710;23.280;2023-02-04T00:57:37;94691.06;;;4.32;66.44
33953;BME280;20231;42.710;23.280;2023-02-04T01:00:04;94689.81;;;4.14;66.43
33953;BME280;20231;42.710;23.280;2023-02-04T01:02:29;94683.97;;;4.54;64.97
33953;BME280;20231;42.710;23.280;2023-02-04T01:04:55;94690.88;;;4.70;64.70
33953;BME280;20231;42.710;23.280;2023-02-04T01:07:20;94667.38;;;4.70;62.83
33953;BME280;20231;42.710;23.280;2023-02-04T01:09:46;94664.72;;;4.96;62.03
33953;BME280;20231;42.710;23.280;2023-02-04T01:12:11;94668.03;;;4.87;61.42
33953;BME280;20231;42.710;23.280;2023-02-04T01:14:36;94671.63;;;5.12;61.57
33953;BME280;20231;42.710;23.280;2023-02-04T01:17:02;94653.78;;;5.04;62.33
33953;BME280;20231;42.710;23.280;2023-02-04T01:19:27;94647.97;;;4.93;62.65
33953;BME280;20231;42.710;23.280;2023-02-04T01:21:53;94657.78;;;4.76;63.34
33953;BME280;20231;42.710;23.280;2023-02-04T01:24:18;94637.56;;;5.02;61.62
33953;BME280;20231;42.710;23.280;2023-02-04T01:26:43;94631.69;;;5.22;61.09
33953;BME280;20231;42.710;23.280;2023-02-04T01:29:09;94655.28;;;5.32;59.23
33953;BME280;20231;42.710;23.280;2023-02-04T01:31:35;94653.94;;;5.29;58.30
33953;BME280;20231;42.710;23.280;2023-02-04T01:34:00;94628.09;;;5.38;57.93
33953;BME280;20231;42.710;23.280;2023-02-04T01:36:26;94613.00;;;5.50;57.74
33953;BME280;20231;42.710;23.280;2023-02-04T01:38:51;94617.47;;;5.59;57.01
33953;BME280;20231;42.710;23.280;2023-02-04T01:41:17;94603.88;;;5.57;56.91
33953;BME280;20231;42.710;23.280;2023-02-04T01:43:45;94602.81;;;5.58;56.81
33953;BME280;20231;42.710;23.280;2023-02-04T01:46:11;94596.34;;;5.65;56.55
33953;BME280;20231;42.710;23.280;2023-02-04T01:48:36;94610.44;;;5.64;56.14
33953;BME280;20231;42.710;23.280;2023-02-04T01:51:07;94615.69;;;5.69;56.84
33953;BME280;20231;42.710;23.280;2023-02-04T01:53:34;94602.88;;;5.68;56.58
33953;BME280;20231;42.710;23.280;2023-02-04T01:56:01;94618.91;;;5.86;56.49
33953;BME280;20231;42.710;23.280;2023-02-04T01:58:29;94604.84;;;5.97;55.79
33953;BME280;20231;42.710;23.280;2023-02-04T02:00:56;94591.19;;;5.85;56.27
33953;BME280;20231;42.710;23.280;2023-02-04T02:03:21;94595.31;;;5.71;56.13
33953;BME280;20231;42.710;23.280;2023-02-04T02:05:50;94607.69;;;5.91;56.22
33953;BME280;20231;42.710;23.280;2023-02-04T02:08:16;94589.34;;;5.86;56.03
33953;BME280;20231;42.710;23.280;2023-02-04T02:10:44;94581.00;;;5.89;56.10
33953;BME280;20231;42.710;23.280;2023-02-04T02:13:14;94571.09;;;6.06;57.73
33953;BME280;20231;42.710;23.280;2023-02-04T02:15:40;94588.59;;;6.05;58.92
33953;BME280;20231;42.710;23.280;2023-02-04T02:18:06;94581.28;;;6.17;57.80
33953;BME280;20231;42.710;23.280;2023-02-04T02:20:32;94576.84;;;6.18;58.50
33953;BME280;20231;42.710;23.280;2023-02-04T02:25:44;94566.38;;;6.23;58.31
33953;BME280;20231;42.710;23.280;2023-02-04T02:28:13;94554.06;;;6.18;58.08
33953;BME280;20231;42.710;23.280;2023-02-04T02:30:40;94533.66;;;6.15;57.94
33953;BME280;20231;42.710;23.280;2023-02-04T02:33:09;94542.81;;;6.23;58.15
33953;BME280;20231;42.710;23.280;2023-02-04T02:35:35;94532.88;;;6.20;58.20
33953;BME280;20231;42.710;23.280;2023-02-04T02:38:01;94515.31;;;6.15;58.11
33953;BME280;20231;42.710;23.280;2023-02-04T02:40:26;94508.50;;;6.09;58.04
33953;BME280;20231;42.710;23.280;2023-02-04T02:42:52;94514.81;;;6.23;58.01
33953;BME280;20231;42.710;23.280;2023-02-04T02:45:22;94515.56;;;6.29;57.81
33953;BME280;20231;42.710;23.280;2023-02-04T02:47:49;94497.53;;;6.22;57.26
33953;BME280;20231;42.710;23.280;2023-02-04T02:50:18;94500.38;;;6.11;56.60
33953;BME280;20231;42.710;23.280;2023-02-04T02:52:45;94500.91;;;6.23;56.13
33953;BME280;20231;42.710;23.280;2023-02-04T02:55:13;94491.75;;;6.20;55.70
33953;BME280;20231;42.710;23.280;2023-02-04T02:57:40;94494.63;;;6.43;55.14
33953;BME280;20231;42.710;23.280;2023-02-04T03:00:20;94488.59;;;6.43;55.10
33953;BME280;20231;42.710;23.280;2023-02-04T03:03:07;94494.06;;;6.51;55.21
33953;BME280;20231;42.710;23.280;2023-02-04T03:05:39;94480.72;;;6.48;55.03
33953;BME280;20231;42.710;23.280;2023-02-04T03:08:06;94475.19;;;6.59;54.57
33953;BME280;20231;42.710;23.280;2023-02-04T03:10:31;94491.16;;;6.68;54.36
33953;BME280;20231;42.710;23.280;2023-02-04T03:12:58;94499.84;;;6.68;54.64
33953;BME280;20231;42.710;23.280;2023-02-04T03:15:24;94506.88;;;6.83;54.77
33953;BME280;20231;42.710;23.280;2023-02-04T03:17:50;94503.44;;;6.82;54.80
33953;BME280;20231;42.710;23.280;2023-02-04T03:20:22;94493.50;;;6.79;54.13
33953;BME280;20231;42.710;23.280;2023-02-04T03:22:48;94472.56;;;6.69;54.40
33953;BME280;20231;42.710;23.280;2023-02-04T03:25:14;94473.06;;;6.71;54.47
33953;BME280;20231;42.710;23.280;2023-02-04T03:27:39;94472.09;;;6.42;55.32
33953;BME280;20231;42.710;23.280;2023-02-04T03:30:05;94485.44;;;6.66;54.83
33953;BME280;20231;42.710;23.280;2023-02-04T03:32:31;94481.50;;;6.68;54.74
33953;BME280;20231;42.710;23.280;2023-02-04T03:34:56;94478.84;;;6.73;55.34
33953;BME280;20231;42.710;23.280;2023-02-04T03:37:21;94469.66;;;6.76;55.55
33953;BME280;20231;42.710;23.280;2023-02-04T03:39:47;94435.94;;;6.49;55.94
33953;BME280;20231;42.710;23.280;2023-02-04T03:42:12;94471.25;;;6.72;55.60
33953;BME280;20231;42.710;23.280;2023-02-04T03:44:38;94472.31;;;6.66;56.75
33953;BME280;20231;42.710;23.280;2023-02-04T03:47:03;94463.38;;;6.67;56.46
33953;BME280;20231;42.710;23.280;2023-02-04T03:49:28;94476.22;;;6.73;56.45
33953;BME280;20231;42.710;23.280;2023-02-04T03:51:56;94473.34;;;6.70;56.45
33953;BME280;20231;42.710;23.280;2023-02-04T03:54:21;94458.94;;;6.67;57.01
33953;BME280;20231;42.710;23.280;2023-02-04T03:56:47;94457.13;;;6.63;56.76
33953;BME280;20231;42.710;23.280;2023-02-04T03:59:12;94440.38;;;6.59;57.16
33953;BME280;20231;42.710;23.280;2023-02-04T04:01:37;94456.84;;;6.59;57.11
33953;BME280;20231;42.710;23.280;2023-02-04T04:04:03;94452.41;;;6.65;57.30
33953;BME280;20231;42.710;23.280;2023-02-04T04:06:28;94435.63;;;6.56;57.44
33953;BME280;20231;42.710;23.280;2023-02-04T04:08:54;94435.13;;;6.59;57.46
33953;BME280;20231;42.710;23.280;2023-02-04T04:11:19;94420.72;;;6.56;57.69
33953;BME280;20231;42.710;23.280;2023-02-04T04:13:46;94431.19;;;6.56;57.82
33953;BME280;20231;42.710;23.280;2023-02-04T04:16:11;94425.44;;;6.39;58.21
33953;BME280;20231;42.710;23.280;2023-02-04T04:18:36;94435.94;;;6.35;58.96
33953;BME280;20231;42.710;23.280;2023-02-04T04:21:02;94406.91;;;6.01;59.78
33953;BME280;20231;42.710;23.280;2023-02-04T04:23:28;94430.97;;;6.18;59.75
33953;BME280;20231;42.710;23.280;2023-02-04T04:25:53;94417.63;;;6.15;60.03
33953;BME280;20231;42.710;23.280;2023-02-04T04:28:18;94439.34;;;6.25;59.29
33953;BME280;20231;42.710;23.280;2023-02-04T04:30:44;94437.53;;;6.16;59.89
33953;BME280;20231;42.710;23.280;2023-02-04T04:33:09;94439.09;;;5.97;61.18
33953;BME280;20231;42.710;23.280;2023-02-04T04:35:35;94453.25;;;6.16;60.58
33953;BME280;20231;42.710;23.280;2023-02-04T04:38:01;94436.47;;;6.02;61.22
33953;BME280;20231;42.710;23.280;2023-02-04T04:40:27;94425.25;;;5.91;61.34
33953;BME280;20231;42.710;23.280;2023-02-04T04:42:52;94442.78;;;6.11;60.67
33953;BME280;20231;42.710;23.280;2023-02-04T04:45:17;94442.53;;;6.02;61.57
33953;BME280;20231;42.710;23.280;2023-02-04T04:47:44;94463.59;;;5.41;62.45
33953;BME280;20231;42.710;23.280;2023-02-04T04:50:09;94459.25;;;5.76;61.59
33953;BME280;20231;42.710;23.280;2023-02-04T04:52:35;94452.41;;;5.75;61.23
33953;BME280;20231;42.710;23.280;2023-02-04T04:55:00;94458.91;;;5.38;62.55
33953;BME280;20231;42.710;23.280;2023-02-04T04:57:25;94471.44;;;5.36;63.13
33953;BME280;20231;42.710;23.280;2023-02-04T04:59:51;94455.03;;;5.70;62.41
33953;BME280;20231;42.710;23.280;2023-02-04T05:02:16;94450.84;;;5.74;62.39
33953;BME280;20231;42.710;23.280;2023-02-04T05:04:42;94486.44;;;5.65;64.09
33953;BME280;20231;42.710;23.280;2023-02-04T05:07:07;94469.38;;;5.53;65.03
33953;BME280;20231;42.710;23.280;2023-02-04T05:09:33;94447.41;;;5.54;65.66
33953;BME280;20231;42.710;23.280;2023-02-04T05:11:58;94456.84;;;5.55;65.56
33953;BME280;20231;42.710;23.280;2023-02-04T05:14:23;94474.38;;;5.64;65.65
33953;BME280;20231;42.710;23.280;2023-02-04T05:16:49;94482.03;;;5.76;65.27
33953;BME280;20231;42.710;23.280;2023-02-04T05:19:14;94492.44;;;5.66;65.55
33953;BME280;20231;42.710;23.280;2023-02-04T05:21:40;94496.59;;;5.52;66.13
33953;BME280;20231;42.710;23.280;2023-02-04T05:24:05;94525.63;;;5.56;65.98
33953;BME280;20231;42.710;23.280;2023-02-04T05:26:31;94524.22;;;5.18;67.32
33953;BME280;20231;42.710;23.280;2023-02-04T05:28:57;94513.28;;;5.31;67.29
33953;BME280;20231;42.710;23.280;2023-02-04T05:31:25;94562.91;;;5.21;67.21
33953;BME280;20231;42.710;23.280;2023-02-04T05:33:51;94526.34;;;5.31;67.26
33953;BME280;20231;42.710;23.280;2023-02-04T05:36:16;94524.19;;;5.13;67.29
33953;BME280;20231;42.710;23.280;2023-02-04T05:38:42;94559.56;;;4.85;67.67
33953;BME280;20231;42.710;23.280;2023-02-04T05:41:08;94514.97;;;5.01;68.00
33953;BME280;20231;42.710;23.280;2023-02-04T05:43:33;94556.19;;;4.89;68.07
33953;BME280;20231;42.710;23.280;2023-02-04T05:45:59;94571.41;;;4.97;66.73
33953;BME280;20231;42.710;23.280;2023-02-04T05:48:25;94510.34;;;4.72;67.22
33953;BME280;20231;42.710;23.280;2023-02-04T05:50:50;94502.34;;;4.88;67.00
33953;BME280;20231;42.710;23.280;2023-02-04T05:53:16;94504.31;;;5.12;67.59
33953;BME280;20231;42.710;23.280;2023-02-04T05:55:41;94500.97;;;5.32;69.99
33953;BME280;20231;42.710;23.280;2023-02-04T05:58:06;94483.28;;;5.63;70.35
33953;BME280;20231;42.710;23.280;2023-02-04T06:00:32;94493.56;;;5.90;68.20
33953;BME280;20231;42.710;23.280;2023-02-04T06:02:57;94527.03;;;5.83;63.66
33953;BME280;20231;42.710;23.280;2023-02-04T06:05:23;94507.09;;;5.72;63.01
33953;BME280;20231;42.710;23.280;2023-02-04T06:07:48;94490.53;;;5.37;64.19
33953;BME280;20231;42.710;23.280;2023-02-04T06:10:14;94508.91;;;5.57;63.50
33953;BME280;20231;42.710;23.280;2023-02-04T06:12:40;94513.63;;;5.60;63.10
33953;BME280;20231;42.710;23.280;2023-02-04T06:15:06;94504.19;;;5.49;63.17
33953;BME280;20231;42.710;23.280;2023-02-04T06:17:31;94520.56;;;5.24;64.59
33953;BME280;20231;42.710;23.280;2023-02-04T06:19:57;94521.47;;;5.55;63.74
33953;BME280;20231;42.710;23.280;2023-02-04T06:22:22;94515.47;;;5.64;63.24
33953;BME280;20231;42.710;23.280;2023-02-04T06:24:48;94494.53;;;5.64;62.75
33953;BME280;20231;42.710;23.280;2023-02-04T06:27:14;94523.06;;;5.70;62.80
33953;BME280;20231;42.710;23.280;2023-02-04T06:29:47;94508.63;;;5.58;62.81
33953;BME280;20231;42.710;23.280;2023-02-04T06:32:13;94519.44;;;5.76;62.37
33953;BME280;20231;42.710;23.280;2023-02-04T06:34:38;94536.16;;;5.75;62.02
33953;BME280;20231;42.710;23.280;2023-02-04T06:37:03;94539.09;;;5.84;61.77
33953;BME280;20231;42.710;23.280;2023-02-04T06:39:29;94534.38;;;5.91;61.42
33953;BME280;20231;42.710;23.280;2023-02-04T06:41:54;94529.97;;;5.96;60.96
33953;BME280;20231;42.710;23.280;2023-02-04T06:44:20;94522.38;;;5.95;60.59
33953;BME280;20231;42.710;23.280;2023-02-04T06:46:45;94523.19;;;6.10;60.27
33953;BME280;20231;42.710;23.280;2023-02-04T06:49:11;94530.50;;;6.13;60.03
33953;BME280;20231;42.710;23.280;2023-02-04T06:51:36;94530.50;;;6.18;59.49
33953;BME280;20231;42.710;23.280;2023-02-04T06:54:01;94517.13;;;6.00;59.46
33953;BME280;20231;42.710;23.280;2023-02-04T06:56:27;94536.28;;;6.10;59.35
33953;BME280;20231;42.710;23.280;2023-02-04T06:58:53;94532.03;;;5.94;59.22
33953;BME280;20231;42.710;23.280;2023-02-04T07:01:19;94529.97;;;5.96;59.35
33953;BME280;20231;42.710;23.280;2023-02-04T07:03:44;94525.22;;;5.88;59.89
33953;BME280;20231;42.710;23.280;2023-02-04T07:06:09;94538.03;;;5.80;60.05
33953;BME280;20231;42.710;23.280;2023-02-04T07:08:35;94501.94;;;5.87;59.91
33953;BME280;20231;42.710;23.280;2023-02-04T07:11:00;94537.03;;;6.11;59.45
33953;BME280;20231;42.710;23.280;2023-02-04T07:13:26;94525.53;;;6.12;59.10
33953;BME280;20231;42.710;23.280;2023-02-04T07:15:51;94518.44;;;6.07;59.42
33953;BME280;20231;42.710;23.280;2023-02-04T07:18:17;94514.28;;;6.16;59.30
33953;BME280;20231;42.710;23.280;2023-02-04T07:20:44;94505.63;;;6.01;59.90
33953;BME280;20231;42.710;23.280;2023-02-04T07:23:09;94503.53;;;6.18;59.86
33953;BME280;20231;42.710;23.280;2023-02-04T07:25:35;94509.28;;;6.15;59.54
33953;BME280;20231;42.710;23.280;2023-02-04T07:28:00;94503.50;;;5.98;60.24
33953;BME280;20231;42.710;23.280;2023-02-04T07:30:28;94500.63;;;6.24;59.69
33953;BME280;20231;42.710;23.280;2023-02-04T07:32:53;94495.69;;;6.18;58.96
33953;BME280;20231;42.710;23.280;2023-02-04T07:35:19;94497.53;;;6.22;58.77
33953;BME280;20231;42.710;23.280;2023-02-04T07:37:44;94496.19;;;6.05;58.88
33953;BME280;20231;42.710;23.280;2023-02-04T07:40:11;94474.47;;;6.14;59.20
33953;BME280;20231;42.710;23.280;2023-02-04T07:42:36;94481.25;;;6.05;59.92
33953;BME280;20231;42.710;23.280;2023-02-04T07:45:02;94500.13;;;6.32;59.46
33953;BME280;20231;42.710;23.280;2023-02-04T07:47:27;94494.38;;;6.35;58.84
33953;BME280;20231;42.710;23.280;2023-02-04T07:49:53;94476.56;;;6.32;58.99
33953;BME280;20231;42.710;23.280;2023-02-04T07:52:22;94470.81;;;6.10;59.74
33953;BME280;20231;42.710;23.280;2023-02-04T07:54:47;94502.47;;;6.29;59.01
33953;BME280;20231;42.710;23.280;2023-02-04T07:57:13;94492.25;;;6.32;58.65
33953;BME280;20231;42.710;23.280;2023-02-04T07:59:38;94495.91;;;6.36;58.75
33953;BME280;20231;42.710;23.280;2023-02-04T08:02:04;94501.94;;;6.22;58.99
33953;BME280;20231;42.710;23.280;2023-02-04T08:04:29;94493.06;;;6.13;59.88
33953;BME280;20231;42.710;23.280;2023-02-04T08:06:54;94492.28;;;6.27;59.45
33953;BME280;20231;42.710;23.280;2023-02-04T08:09:20;94492.53;;;6.36;59.49
33953;BME280;20231;42.710;23.280;2023-02-04T08:11:45;94504.81;;;6.30;59.15
33953;BME280;20231;42.710;23.280;2023-02-04T08:14:11;94514.53;;;6.30;59.33
33953;BME280;20231;42.710;23.280;2023-02-04T08:16:36;94504.06;;;6.05;59.77
33953;BME280;20231;42.710;23.280;2023-02-04T08:19:01;94494.13;;;6.07;59.87
33953;BME280;20231;42.710;23.280;2023-02-04T08:21:27;94492.50;;;5.96;60.25
33953;BME280;20231;42.710;23.280;2023-02-04T08:23:52;94497.66;;;5.66;61.71
33953;BME280;20231;42.710;23.280;2023-02-04T08:26:18;94496.44;;;5.88;61.20
33953;BME280;20231;42.710;23.280;2023-02-04T08:28:45;94497.16;;;5.64;62.20
33953;BME280;20231;42.710;23.280;2023-02-04T08:31:10;94487.22;;;5.66;62.57
33953;BME280;20231;42.710;23.280;2023-02-04T08:33:37;94497.47;;;5.92;61.92
33953;BME280;20231;42.710;23.280;2023-02-04T08:36:04;94475.75;;;5.87;61.56
33953;BME280;20231;42.710;23.280;2023-02-04T08:38:30;94474.47;;;6.04;61.46
33953;BME280;20231;42.710;23.280;2023-02-04T08:40:55;94486.75;;;6.29;60.85
33953;BME280;20231;42.710;23.280;2023-02-04T08:43:20;94505.09;;;6.29;59.94
33953;BME280;20231;42.710;23.280;2023-02-04T08:45:46;94490.69;;;6.26;60.24
33953;BME280;20231;42.710;23.280;2023-02-04T08:48:11;94489.38;;;6.24;60.57
33953;BME280;20231;42.710;23.280;2023-02-04T08:50:37;94487.81;;;6.28;61.13
33953;BME280;20231;42.710;23.280;2023-02-04T08:53:02;94474.72;;;6.18;61.46
33953;BME280;20231;42.710;23.280;2023-02-04T08:55:27;94490.16;;;5.94;62.69
33953;BME280;20231;42.710;23.280;2023-02-04T08:57:53;94477.56;;;5.81;63.57
33953;BME280;20231;42.710;23.280;2023-02-04T09:00:18;94499.59;;;6.00;63.29
33953;BME280;20231;42.710;23.280;2023-02-04T09:02:44;94472.91;;;5.98;63.28
33953;BME280;20231;42.710;23.280;2023-02-04T09:05:09;94480.72;;;5.83;63.40
33953;BME280;20231;42.710;23.280;2023-02-04T09:07:35;94479.69;;;5.99;63.37
33953;BME280;20231;42.710;23.280;2023-02-04T09:10:00;94482.03;;;6.16;62.77
33953;BME280;20231;42.710;23.280;2023-02-04T09:12:25;94467.94;;;6.07;62.18
33953;BME280;20231;42.710;23.280;2023-02-04T09:14:51;94442.25;;;5.79;62.39
33953;BME280;20231;42.710;23.280;2023-02-04T09:17:16;94476.03;;;6.15;61.61
33953;BME280;20231;42.710;23.280;2023-02-04T09:19:42;94453.00;;;6.22;60.69
33953;BME280;20231;42.710;23.280;2023-02-04T09:22:07;94460.84;;;6.22;60.49
33953;BME280;20231;42.710;23.280;2023-02-04T09:24:32;94465.81;;;6.29;59.50
33953;BME280;20231;42.710;23.280;2023-02-04T09:26:58;94465.28;;;6.41;59.62
33953;BME280;20231;42.710;23.280;2023-02-04T09:29:23;94466.59;;;5.94;60.81
33953;BME280;20231;42.710;23.280;2023-02-04T09:31:49;94497.00;;;6.15;61.33
33953;BME280;20231;42.710;23.280;2023-02-04T09:34:14;94487.28;;;6.06;61.99
33953;BME280;20231;42.710;23.280;2023-02-04T09:36:39;94471.84;;;5.79;63.65
33953;BME280;20231;42.710;23.280;2023-02-04T09:39:06;94488.06;;;5.91;64.10
33953;BME280;20231;42.710;23.280;2023-02-04T09:41:35;94490.97;;;6.00;64.14
33953;BME280;20231;42.710;23.280;2023-02-04T09:44:03;94473.69;;;6.14;67.60
33953;BME280;20231;42.710;23.280;2023-02-04T09:46:29;94454.56;;;6.03;65.15
33953;BME280;20231;42.710;23.280;2023-02-04T09:48:57;94463.97;;;6.24;65.75
33953;BME280;20231;42.710;23.280;2023-02-04T09:51:26;94465.00;;;6.43;64.64
33953;BME280;20231;42.710;23.280;2023-02-04T09:53:53;94455.28;;;6.53;64.42
33953;BME280;20231;42.710;23.280;2023-02-04T09:56:19;94468.97;;;6.31;64.58
33953;BME280;20231;42.710;23.280;2023-02-04T09:58:45;94450.38;;;6.22;65.12
33953;BME280;20231;42.710;23.280;2023-02-04T10:01:14;94459.78;;;6.13;65.41
33953;BME280;20231;42.710;23.280;2023-02-04T10:03:41;94459.78;;;6.28;65.28
33953;BME280;20231;42.710;23.280;2023-02-04T10:06:13;94457.72;;;6.10;65.24
33953;BME280;20231;42.710;23.280;2023-02-04T10:08:39;94443.56;;;5.91;65.61
33953;BME280;20231;42.710;23.280;2023-02-04T10:11:05;94425.50;;;6.10;65.33
33953;BME280;20231;42.710;23.280;2023-02-04T10:13:36;94436.50;;;6.12;65.01
33953;BME280;20231;42.710;23.280;2023-02-04T10:16:12;94447.75;;;6.07;65.05
33953;BME280;20231;42.710;23.280;2023-02-04T10:18:38;94428.38;;;6.08;65.12
33953;BME280;20231;42.710;23.280;2023-02-04T10:21:16;94436.75;;;6.00;65.56
33953;BME280;20231;42.710;23.280;2023-02-04T10:23:46;94411.63;;;5.94;66.43
33953;BME280;20231;42.710;23.280;2023-02-04T10:26:14;94428.34;;;5.73;67.17
33953;BME280;20231;42.710;23.280;2023-02-04T10:28:40;94416.06;;;6.04;66.71
33953;BME280;20231;42.710;23.280;2023-02-04T10:31:09;94422.34;;;6.08;66.33
33953;BME280;20231;42.710;23.280;2023-02-04T10:34:01;94401.44;;;5.88;67.63
33953;BME280;20231;42.710;23.280;2023-02-04T10:36:27;94421.03;;;5.80;68.49
33953;BME280;20231;42.710;23.280;2023-02-04T10:38:59;94418.69;;;5.99;68.87
33953;BME280;20231;42.710;23.280;2023-02-04T10:41:24;94406.63;;;6.03;68.93
33953;BME280;20231;42.710;23.280;2023-02-04T10:44:01;94418.69;;;5.99;69.52
33953;BME280;20231;42.710;23.280;2023-02-04T10:46:29;94419.22;;;5.91;70.37
33953;BME280;20231;42.710;23.280;2023-02-04T10:48:55;94408.97;;;5.60;71.55
33953;BME280;20231;42.710;23.280;2023-02-04T10:51:21;94380.69;;;5.62;71.16
33953;BME280;20231;42.710;23.280;2023-02-04T10:53:46;94408.44;;;5.53;71.98
33953;BME280;20231;42.710;23.280;2023-02-04T10:56:30;94406.13;;;5.81;71.73
33953;BME280;20231;42.710;23.280;2023-02-04T10:58:55;94418.94;;;5.87;70.96
33953;BME280;20231;42.710;23.280;2023-02-04T11:01:21;94387.56;;;5.77;71.21
33953;BME280;20231;42.710;23.280;2023-02-04T11:03:46;94396.97;;;5.73;71.13
33953;BME280;20231;42.710;23.280;2023-02-04T11:06:18;94403.53;;;5.81;70.99
33953;BME280;20231;42.710;23.280;2023-02-04T11:08:44;94398.03;;;5.77;71.64
33953;BME280;20231;42.710;23.280;2023-02-04T11:11:16;94386.78;;;5.87;70.86
33953;BME280;20231;42.710;23.280;2023-02-04T11:18:45;94381.00;;;6.00;70.49
33953;BME280;20231;42.710;23.280;2023-02-04T11:21:39;94380.47;;;6.13;70.28
33953;BME280;20231;42.710;23.280;2023-02-04T11:26:36;94385.72;;;5.88;71.32
33953;BME280;20231;42.710;23.280;2023-02-04T11:39:17;94389.63;;;5.70;70.88
33953;BME280;20231;42.710;23.280;2023-02-04T11:41:45;94396.47;;;5.91;71.33
33953;BME280;20231;42.710;23.280;2023-02-04T11:44:12;94371.03;;;5.97;71.95
33953;BME280;20231;42.710;23.280;2023-02-04T11:46:38;94390.66;;;6.19;71.26
33953;BME280;20231;42.710;23.280;2023-02-04T11:49:13;94402.22;;;6.03;70.94
33953;BME280;20231;42.710;23.280;2023-02-04T11:51:40;94394.88;;;6.00;70.90
33953;BME280;20231;42.710;23.280;2023-02-04T11:54:09;94360.81;;;6.05;70.92
33953;BME280;20231;42.710;23.280;2023-02-04T11:56:34;94404.03;;;5.93;70.98
33953;BME280;20231;42.710;23.280;2023-02-04T11:59:00;94387.00;;;6.00;71.34
33953;BME280;20231;42.710;23.280;2023-02-04T12:01:31;94375.22;;;6.18;71.10
33953;BME280;20231;42.710;23.280;2023-02-04T12:04:03;94365.56;;;5.83;71.85
33953;BME280;20231;42.710;23.280;2023-02-04T12:06:34;94372.84;;;6.21;71.79
33953;BME280;20231;42.710;23.280;2023-02-04T12:09:27;94381.47;;;6.32;71.43
33953;BME280;20231;42.710;23.280;2023-02-04T12:11:59;94377.78;;;6.42;71.21
33953;BME280;20231;42.710;23.280;2023-02-04T12:14:35;94384.31;;;6.45;71.58
33953;BME280;20231;42.710;23.280;2023-02-04T12:17:17;94369.19;;;6.12;71.30
33953;BME280;20231;42.710;23.280;2023-02-04T12:19:42;94380.16;;;6.24;71.28
33953;BME280;20231;42.710;23.280;2023-02-04T12:22:08;94382.25;;;6.17;71.56
33953;BME280;20231;42.710;23.280;2023-02-04T12:24:34;94366.00;;;6.30;71.37
33953;BME280;20231;42.710;23.280;2023-02-04T12:26:59;94356.06;;;6.27;71.79
33953;BME280;20231;42.710;23.280;2023-02-04T12:29:24;94348.44;;;6.40;71.63
33953;BME280;20231;42.710;23.280;2023-02-04T12:31:50;94356.59;;;6.29;71.04
33953;BME280;20231;42.710;23.280;2023-02-04T12:34:15;94346.66;;;6.21;71.62
33953;BME280;20231;42.710;23.280;2023-02-04T12:36:42;94338.75;;;6.41;71.27
33953;BME280;20231;42.710;23.280;2023-02-04T12:39:07;94347.34;;;6.56;70.99
33953;BME280;20231;42.710;23.280;2023-02-04T12:41:34;94354.44;;;6.51;70.28
33953;BME280;20231;42.710;23.280;2023-02-04T12:44:00;94345.25;;;6.53;70.10
33953;BME280;20231;42.710;23.280;2023-02-04T12:46:27;94345.06;;;6.25;69.73
33953;BME280;20231;42.710;23.280;2023-02-04T12:48:53;94357.91;;;6.32;70.09
33953;BME280;20231;42.710;23.280;2023-02-04T12:51:18;94332.53;;;6.07;70.46
33953;BME280;20231;42.710;23.280;2023-02-04T12:53:46;94357.41;;;6.20;70.81
33953;BME280;20231;42.710;23.280;2023-02-04T12:56:12;94344.03;;;6.26;70.50
33953;BME280;20231;42.710;23.280;2023-02-04T12:58:38;94337.47;;;6.24;70.06
33953;BME280;20231;42.710;23.280;2023-02-04T13:01:03;94352.38;;;6.33;69.78
33953;BME280;20231;42.710;23.280;2023-02-04T13:03:28;94356.34;;;6.16;70.44
33953;BME280;20231;42.710;23.280;2023-02-04T13:05:54;94372.56;;;6.23;69.30
33953;BME280;20231;42.710;23.280;2023-02-04T13:08:20;94344.31;;;6.15;69.28
33953;BME280;20231;42.710;23.280;2023-02-04T13:10:45;94358.94;;;6.31;69.32
33953;BME280;20231;42.710;23.280;2023-02-04T13:13:18;94374.41;;;6.17;67.79
33953;BME280;20231;42.710;23.280;2023-02-04T13:15:44;94342.53;;;5.90;67.62
33953;BME280;20231;42.710;23.280;2023-02-04T13:18:09;94354.81;;;5.90;67.41